createdAt,value
2023-01-07T00:01:20.320Z,15.50
2023-01-07T00:03:48.721Z,41.75
2023-01-07T00:06:21.808Z,45.00
2023-01-07T00:08:50.163Z,33.00
2023-01-07T00:11:20.347Z,34.75
2023-01-07T00:13:49.910Z,31.50
2023-01-07T00:16:20.299Z,41.00
2023-01-07T00:18:47.847Z,39.75
2023-01-07T00:21:16.875Z,44.00
2023-01-07T00:23:44.850Z,46.00
2023-01-07T00:26:14.075Z,45.00
2023-01-07T00:28:42.834Z,48.25
2023-01-07T00:31:15.111Z,48.25
2023-01-07T00:34:06.827Z,48.75
2023-01-07T00:36:39.917Z,49.00
2023-01-07T00:39:13.742Z,46.00
2023-01-07T00:41:40.558Z,49.00
2023-01-07T00:44:08.039Z,45.25
2023-01-07T00:46:34.959Z,48.75
2023-01-07T00:49:02.315Z,52.00
2023-01-07T00:51:29.026Z,57.00
2023-01-07T00:53:55.831Z,34.25
2023-01-07T00:56:22.596Z,54.25
2023-01-07T00:58:49.334Z,56.50
2023-01-07T01:01:16.123Z,58.75
2023-01-07T01:03:42.918Z,57.00
2023-01-07T01:06:16.101Z,59.25
2023-01-07T01:08:45.674Z,58.00
2023-01-07T01:11:13.923Z,58.25
2023-01-07T01:13:40.923Z,57.25
2023-01-07T01:16:18.203Z,56.00
2023-01-07T01:18:45.685Z,63.25
2023-01-07T01:21:14.372Z,42.75
2023-01-07T01:23:42.785Z,59.50
2023-01-07T01:26:13.736Z,57.00
2023-01-07T01:28:41.480Z,58.75
2023-01-07T01:31:09.520Z,57.75
2023-01-07T01:33:36.675Z,44.75
2023-01-07T01:36:05.498Z,61.00
2023-01-07T01:38:32.280Z,59.75
2023-01-07T01:40:59.047Z,13.75
2023-01-07T01:43:41.502Z,59.50
2023-01-07T01:46:26.422Z,61.00
2023-01-07T01:49:16.602Z,59.00
2023-01-07T01:51:50.508Z,57.00
2023-01-07T01:54:20.177Z,49.25
2023-01-07T01:56:52.458Z,59.50
2023-01-07T01:59:23.163Z,54.25
2023-01-07T02:01:50.207Z,62.25
2023-01-07T02:04:21.195Z,64.25
2023-01-07T02:07:17.220Z,53.75
2023-01-07T02:09:44.522Z,57.00
2023-01-07T02:12:31.500Z,59.00
2023-01-07T02:15:12.916Z,29.75
2023-01-07T02:17:51.480Z,56.25
2023-01-07T02:20:21.173Z,59.00
2023-01-07T02:23:18.067Z,57.25
2023-01-07T02:26:20.477Z,60.50
2023-01-07T02:29:25.010Z,58.00
2023-01-07T02:32:15.322Z,62.00
2023-01-07T02:34:49.119Z,63.25
2023-01-07T02:37:43.717Z,64.50
2023-01-07T02:40:23.139Z,64.75
2023-01-07T02:43:31.575Z,62.00
2023-01-07T02:46:17.146Z,63.25
2023-01-07T02:48:45.355Z,63.25
2023-01-07T02:51:12.589Z,69.25
2023-01-07T02:53:43.245Z,68.00
2023-01-07T02:56:48.599Z,68.50
2023-01-07T02:59:24.266Z,70.25
2023-01-07T03:02:03.037Z,56.75
2023-01-07T03:04:32.717Z,62.00
2023-01-07T03:07:31.706Z,64.25
2023-01-07T03:10:17.137Z,66.00
2023-01-07T03:12:50.226Z,66.25
2023-01-07T03:15:34.143Z,72.00
2023-01-07T03:18:06.411Z,72.00
2023-01-07T03:20:37.648Z,73.75
2023-01-07T03:23:11.227Z,72.25
2023-01-07T03:25:46.626Z,67.75
2023-01-07T03:28:19.049Z,71.75
2023-01-07T03:30:49.561Z,66.25
2023-01-07T03:33:54.482Z,59.25
2023-01-07T03:36:27.284Z,69.50
2023-01-07T03:38:55.383Z,66.00
2023-01-07T03:41:40.403Z,66.25
2023-01-07T03:44:07.137Z,56.75
2023-01-07T03:46:35.569Z,65.00
2023-01-07T03:49:02.274Z,70.50
2023-01-07T03:51:29.039Z,66.00
2023-01-07T03:53:55.754Z,68.00
2023-01-07T03:56:22.648Z,60.25
2023-01-07T03:58:49.352Z,65.50
2023-01-07T04:01:16.366Z,62.75
2023-01-07T04:03:43.143Z,56.50
2023-01-07T04:06:09.962Z,64.50
2023-01-07T04:08:37.287Z,69.25
2023-01-07T04:11:04.686Z,66.25
2023-01-07T04:13:31.587Z,63.00
2023-01-07T04:15:58.410Z,63.25
2023-01-07T04:18:25.226Z,51.75
2023-01-07T04:20:51.927Z,56.75
2023-01-07T04:23:18.581Z,66.50
2023-01-07T04:25:49.580Z,67.50
2023-01-07T04:28:16.550Z,66.00
2023-01-07T04:30:43.355Z,68.50
2023-01-07T04:33:10.455Z,68.50
2023-01-07T04:35:38.696Z,64.00
2023-01-07T04:38:05.562Z,68.50
2023-01-07T04:40:32.913Z,70.75
2023-01-07T04:42:59.716Z,68.75
2023-01-07T04:45:26.371Z,71.75
2023-01-07T04:47:56.325Z,68.75
2023-01-07T04:50:24.191Z,69.75
2023-01-07T04:52:51.407Z,72.00
2023-01-07T04:55:18.073Z,67.00
2023-01-07T04:57:44.971Z,71.00
2023-01-07T05:00:12.077Z,72.00
2023-01-07T05:02:39.181Z,66.50
2023-01-07T05:05:06.179Z,70.75
2023-01-07T05:07:32.862Z,67.25
2023-01-07T05:09:59.589Z,70.00
2023-01-07T05:12:26.383Z,69.00
2023-01-07T05:14:53.062Z,67.50
2023-01-07T05:17:19.933Z,49.75
2023-01-07T05:19:46.691Z,62.25
2023-01-07T05:22:13.531Z,68.00
2023-01-07T05:24:40.386Z,73.75
2023-01-07T05:27:07.233Z,69.75
2023-01-07T05:29:33.861Z,69.00
2023-01-07T05:32:00.613Z,68.25
2023-01-07T05:34:27.376Z,62.50
2023-01-07T05:36:54.163Z,64.75
2023-01-07T05:39:20.835Z,57.75
2023-01-07T05:41:47.497Z,72.00
2023-01-07T05:44:14.450Z,71.00
2023-01-07T05:46:41.066Z,71.50
2023-01-07T05:49:07.903Z,69.75
2023-01-07T05:51:35.429Z,72.25
2023-01-07T05:54:02.256Z,72.00
2023-01-07T05:56:29.018Z,74.75
2023-01-07T05:58:55.774Z,72.00
2023-01-07T06:01:22.701Z,75.25
2023-01-07T06:03:49.533Z,75.00
2023-01-07T06:06:16.398Z,69.75
2023-01-07T06:08:43.188Z,73.00
2023-01-07T06:11:10.365Z,65.00
2023-01-07T06:13:37.128Z,74.75
2023-01-07T06:16:07.187Z,69.75
2023-01-07T06:18:35.114Z,75.50
2023-01-07T06:21:03.389Z,78.00
2023-01-07T06:23:31.519Z,71.75
2023-01-07T06:25:58.436Z,77.00
2023-01-07T06:28:25.409Z,76.00
2023-01-07T06:30:52.283Z,76.75
2023-01-07T06:33:19.176Z,77.75
2023-01-07T06:35:46.994Z,72.75
2023-01-07T06:38:14.538Z,74.00
2023-01-07T06:40:41.556Z,56.00
2023-01-07T06:43:08.483Z,77.00
2023-01-07T06:45:35.401Z,69.50
2023-01-07T06:48:02.970Z,76.50
2023-01-07T06:50:29.861Z,73.50
2023-01-07T06:52:57.045Z,73.00
2023-01-07T06:55:23.820Z,74.00
2023-01-07T06:57:50.537Z,71.00
2023-01-07T07:00:17.678Z,80.75
2023-01-07T07:02:46.471Z,80.00
2023-01-07T07:05:13.713Z,75.50
2023-01-07T07:07:40.528Z,73.00
2023-01-07T07:10:08.582Z,75.25
2023-01-07T07:12:37.860Z,75.50
2023-01-07T07:15:06.343Z,78.00
2023-01-07T07:17:33.180Z,76.00
2023-01-07T07:20:00.033Z,79.00
2023-01-07T07:22:26.755Z,80.00
2023-01-07T07:24:53.512Z,80.00
2023-01-07T07:27:22.633Z,84.00
2023-01-07T07:29:49.426Z,89.25
2023-01-07T07:32:16.275Z,79.25
2023-01-07T07:34:43.351Z,82.00
2023-01-07T07:37:10.480Z,89.50
2023-01-07T07:39:40.591Z,100.25
2023-01-07T07:42:07.396Z,86.50
2023-01-07T07:44:34.206Z,99.25
2023-01-07T07:47:00.943Z,78.75
2023-01-07T07:49:27.706Z,82.25
2023-01-07T07:51:54.471Z,77.50
2023-01-07T07:54:23.735Z,84.00
2023-01-07T07:56:50.710Z,80.00
2023-01-07T07:59:17.435Z,86.50
2023-01-07T08:01:44.406Z,82.25
2023-01-07T08:04:11.162Z,69.75
2023-01-07T08:06:37.961Z,82.50
2023-01-07T08:09:04.837Z,86.50
2023-01-07T08:11:31.696Z,78.50
2023-01-07T08:13:58.681Z,77.00
2023-01-07T08:16:25.632Z,81.75
2023-01-07T08:18:52.259Z,81.25
2023-01-07T08:21:19.054Z,88.50
2023-01-07T08:26:14.796Z,108.50
2023-01-07T08:28:41.503Z,101.50
2023-01-07T08:31:08.614Z,102.50
2023-01-07T08:33:38.733Z,105.25
2023-01-07T08:36:18.069Z,100.50
2023-01-07T08:38:51.768Z,113.00
2023-01-07T08:41:20.560Z,113.00
2023-01-07T08:43:47.491Z,116.50
2023-01-07T08:46:14.264Z,124.25
2023-01-07T08:48:41.041Z,132.25
2023-01-07T08:51:08.179Z,122.25
2023-01-07T08:53:35.116Z,106.50
2023-01-07T08:56:02.055Z,93.75
2023-01-07T08:58:29.654Z,96.75
2023-01-07T09:01:04.255Z,105.00
2023-01-07T09:03:31.112Z,91.75
2023-01-07T09:05:58.475Z,98.00
2023-01-07T09:08:25.321Z,89.25
2023-01-07T09:10:52.135Z,83.75
2023-01-07T09:13:19.029Z,86.50
2023-01-07T09:15:45.997Z,96.50
2023-01-07T09:18:12.743Z,94.00
2023-01-07T09:20:39.487Z,88.67
2023-01-07T09:23:06.528Z,75.67
2023-01-07T09:25:33.503Z,88.00
2023-01-07T09:28:00.334Z,90.67
2023-01-07T09:30:26.938Z,98.33
2023-01-07T09:32:53.582Z,94.67
2023-01-07T09:35:20.411Z,101.67
2023-01-07T09:37:47.028Z,87.67
2023-01-07T09:40:28.799Z,101.00
2023-01-07T09:43:09.041Z,99.00
2023-01-07T09:45:55.941Z,94.67
2023-01-07T09:48:33.751Z,95.00
2023-01-07T09:51:20.287Z,99.33
2023-01-07T09:53:55.583Z,101.00
2023-01-07T09:56:28.477Z,103.67
2023-01-07T09:58:57.562Z,97.00
2023-01-07T10:01:42.732Z,96.00
2023-01-07T10:04:15.896Z,73.33
2023-01-07T10:06:57.155Z,99.67
2023-01-07T10:09:54.759Z,102.00
2023-01-07T10:12:58.742Z,96.33
2023-01-07T10:15:57.945Z,96.33
2023-01-07T10:18:28.448Z,91.00
2023-01-07T10:21:00.067Z,98.67
2023-01-07T10:23:32.562Z,105.67
2023-01-07T10:26:01.654Z,106.00
2023-01-07T10:28:50.963Z,101.00
2023-01-07T10:31:22.213Z,101.67
2023-01-07T10:33:50.452Z,100.67
2023-01-07T10:36:27.445Z,98.67
2023-01-07T10:38:58.714Z,105.00
2023-01-07T10:41:41.990Z,95.75
2023-01-07T10:44:14.348Z,99.67
2023-01-07T10:46:55.622Z,100.33
2023-01-07T10:49:57.425Z,94.67
2023-01-07T10:52:52.688Z,100.00
2023-01-07T10:55:45.677Z,103.00
2023-01-07T10:58:13.254Z,100.00
2023-01-07T11:00:41.189Z,88.67
2023-01-07T11:03:21.874Z,92.00
2023-01-07T11:05:54.634Z,90.33
2023-01-07T11:08:38.462Z,87.67
2023-01-07T11:11:07.175Z,90.00
2023-01-07T11:13:40.479Z,89.67
2023-01-07T11:16:27.738Z,67.33
2023-01-07T11:18:54.527Z,88.33
2023-01-07T11:21:46.463Z,85.67
2023-01-07T11:24:25.195Z,81.00
2023-01-07T11:26:53.399Z,75.33
2023-01-07T11:29:30.857Z,84.67
2023-01-07T11:32:00.780Z,86.67
2023-01-07T11:34:35.839Z,93.00
2023-01-07T11:37:04.612Z,92.00
2023-01-07T11:39:35.120Z,86.33
2023-01-07T11:42:36.419Z,91.67
2023-01-07T11:45:26.678Z,95.67
2023-01-07T11:48:09.867Z,87.33
2023-01-07T11:50:41.094Z,85.33
2023-01-07T11:53:16.453Z,91.67
2023-01-07T11:55:57.655Z,93.00
2023-01-07T11:58:30.764Z,84.67
2023-01-07T12:01:10.391Z,90.67
2023-01-07T12:03:43.300Z,91.33
2023-01-07T12:06:29.264Z,80.67
2023-01-07T12:09:09.585Z,79.33
2023-01-07T12:11:40.326Z,80.33
2023-01-07T12:14:17.358Z,74.67
2023-01-07T12:16:46.200Z,76.33
2023-01-07T12:19:39.718Z,75.33
2023-01-07T12:22:40.018Z,75.67
2023-01-07T12:25:06.713Z,74.33
2023-01-07T12:27:36.257Z,77.67
2023-01-07T12:30:11.854Z,78.00
2023-01-07T12:32:59.855Z,74.00
2023-01-07T12:35:32.391Z,74.33
2023-01-07T12:38:06.283Z,71.50
2023-01-07T12:40:51.141Z,72.25
2023-01-07T12:43:35.162Z,63.50
2023-01-07T12:46:11.094Z,63.00
2023-01-07T12:48:56.604Z,74.00
2023-01-07T12:51:29.519Z,79.33
2023-01-07T12:54:19.102Z,77.00
2023-01-07T12:57:00.003Z,73.67
2023-01-07T12:59:46.693Z,68.00
2023-01-07T13:02:39.589Z,73.00
2023-01-07T13:05:19.024Z,69.75
2023-01-07T13:07:55.152Z,66.75
2023-01-07T13:10:31.006Z,80.50
2023-01-07T13:13:03.892Z,77.00
2023-01-07T13:15:33.970Z,79.00
2023-01-07T13:18:18.465Z,67.25
2023-01-07T13:21:03.333Z,50.00
2023-01-07T13:23:35.883Z,57.75
2023-01-07T13:26:11.563Z,79.25
2023-01-07T13:29:01.487Z,95.00
2023-01-07T13:31:53.815Z,83.50
2023-01-07T13:34:50.406Z,86.00
2023-01-07T13:37:20.014Z,91.25
2023-01-07T13:40:02.014Z,80.75
2023-01-07T13:42:52.843Z,88.25
2023-01-07T13:45:36.533Z,87.75
2023-01-07T13:48:06.429Z,88.75
2023-01-07T13:50:41.919Z,88.00
2023-01-07T13:53:14.627Z,82.25
2023-01-07T13:55:43.926Z,85.75
2023-01-07T13:58:29.156Z,78.75
2023-01-07T14:01:04.903Z,85.75
2023-01-07T14:03:42.639Z,87.25
2023-01-07T14:06:21.766Z,94.00
2023-01-07T14:09:00.017Z,92.50
2023-01-07T14:11:29.695Z,86.25
2023-01-07T14:14:38.463Z,90.50
2023-01-07T14:17:30.126Z,96.25
2023-01-07T14:20:27.912Z,96.00
2023-01-07T14:23:15.487Z,92.00
2023-01-07T14:25:50.806Z,94.25
2023-01-07T14:28:32.623Z,90.25
2023-01-07T14:30:59.598Z,87.25
2023-01-07T14:33:37.361Z,88.50
2023-01-07T14:36:09.683Z,93.00
2023-01-07T14:38:36.406Z,96.75
2023-01-07T14:41:03.153Z,121.75
2023-01-07T14:43:51.699Z,95.25
2023-01-07T14:46:24.372Z,96.50
2023-01-07T14:49:02.017Z,92.50
2023-01-07T14:52:05.474Z,110.00
2023-01-07T14:54:37.965Z,125.00
2023-01-07T14:57:17.743Z,116.75
2023-01-07T14:59:56.363Z,110.00
2023-01-07T15:03:00.917Z,133.75
2023-01-07T15:05:58.387Z,97.50
2023-01-07T15:08:47.604Z,99.75
2023-01-07T15:11:43.718Z,102.50
2023-01-07T15:15:05.830Z,111.75
2023-01-07T15:17:33.517Z,100.75
2023-01-07T15:20:05.803Z,110.25
2023-01-07T15:22:44.665Z,108.50
2023-01-07T15:25:24.541Z,97.25
2023-01-07T15:27:54.109Z,119.75
2023-01-07T15:30:56.175Z,106.25
2023-01-07T15:33:39.172Z,106.50
2023-01-07T15:36:09.935Z,116.50
2023-01-07T15:38:50.280Z,18.50
2023-01-07T15:41:34.485Z,113.75
2023-01-07T15:44:04.485Z,114.25
2023-01-07T15:46:33.149Z,153.00
2023-01-07T15:49:08.709Z,154.50
2023-01-07T15:51:48.123Z,181.75
2023-01-07T15:54:37.115Z,197.00
2023-01-07T15:57:26.737Z,201.00
2023-01-07T15:59:55.449Z,198.75
2023-01-07T16:02:29.291Z,209.50
2023-01-07T16:05:03.922Z,183.75
2023-01-07T16:07:41.042Z,175.25
2023-01-07T16:10:18.660Z,179.50
2023-01-07T16:12:50.243Z,183.50
2023-01-07T16:15:25.268Z,184.50
2023-01-07T16:17:57.736Z,191.00
2023-01-07T16:20:29.639Z,181.25
2023-01-07T16:23:25.249Z,164.75
2023-01-07T16:25:58.561Z,206.75
2023-01-07T16:28:31.335Z,192.50
2023-01-07T16:30:59.042Z,205.50
2023-01-07T16:33:30.718Z,216.75
2023-01-07T16:36:01.258Z,232.50
2023-01-07T16:38:28.748Z,217.75
2023-01-07T16:40:55.830Z,211.50
2023-01-07T16:43:44.698Z,208.75
2023-01-07T16:46:14.428Z,191.75
2023-01-07T16:48:41.422Z,209.50
2023-01-07T16:51:35.404Z,204.25
2023-01-07T16:54:21.995Z,219.75
2023-01-07T16:56:57.086Z,209.50
2023-01-07T16:59:28.827Z,159.50
2023-01-07T17:01:58.339Z,208.75
2023-01-07T17:04:30.255Z,201.00
2023-01-07T17:07:01.812Z,200.00
2023-01-07T18:09:22.614Z,127.00
2023-01-07T18:12:07.808Z,132.75
2023-01-07T18:14:34.723Z,139.00
2023-01-07T18:17:01.746Z,140.25
2023-01-07T18:19:28.442Z,179.00
2023-01-07T18:21:55.159Z,143.50
2023-01-07T18:24:23.006Z,157.25
2023-01-07T18:26:49.756Z,166.25
2023-01-07T18:29:16.481Z,137.50
2023-01-07T18:31:44.732Z,156.75
2023-01-07T18:34:13.259Z,136.50
2023-01-07T18:36:40.050Z,171.00
2023-01-07T18:39:10.163Z,197.00
2023-01-07T18:41:39.708Z,157.50
2023-01-07T18:44:06.783Z,162.75
2023-01-07T18:46:33.812Z,194.00
2023-01-07T18:49:00.701Z,155.50
2023-01-07T18:51:27.478Z,158.50
2023-01-07T18:53:54.369Z,165.75
2023-01-07T18:56:21.280Z,169.00
2023-01-07T18:58:48.340Z,179.50
2023-01-07T19:01:15.264Z,153.25
2023-01-07T19:03:42.180Z,127.75
2023-01-07T19:06:10.915Z,163.50
2023-01-07T19:08:39.176Z,155.25
2023-01-07T19:11:09.356Z,171.75
2023-01-07T19:13:36.145Z,248.25
2023-01-07T19:16:11.666Z,263.00
2023-01-07T19:18:39.384Z,207.75
2023-01-07T19:21:10.280Z,181.25
2023-01-07T19:23:37.202Z,188.75
2023-01-07T19:26:07.593Z,152.75
2023-01-07T19:28:34.518Z,149.75
2023-01-07T19:31:05.539Z,187.75
2023-01-07T19:33:32.859Z,222.50
2023-01-07T19:36:12.082Z,191.75
2023-01-07T19:38:43.399Z,182.75
2023-01-07T19:41:11.801Z,250.75
2023-01-07T19:43:39.271Z,221.50
2023-01-07T19:46:07.602Z,219.25
2023-01-07T19:48:34.342Z,223.50
2023-01-07T19:51:03.331Z,269.25
2023-01-07T19:53:30.958Z,144.25
2023-01-07T19:56:12.791Z,276.00
2023-01-07T19:58:40.985Z,246.25
2023-01-07T20:01:17.313Z,251.75
2023-01-07T20:03:45.694Z,249.75
2023-01-07T20:06:16.117Z,260.25
2023-01-07T20:08:43.328Z,277.75
2023-01-07T20:11:10.655Z,209.25
2023-01-07T20:13:39.163Z,208.00
2023-01-07T20:16:12.097Z,210.25
2023-01-07T20:18:41.470Z,229.00
2023-01-07T20:21:09.314Z,217.25
2023-01-07T20:23:37.743Z,200.25
2023-01-07T20:26:08.641Z,215.50
2023-01-07T20:28:35.664Z,192.25
2023-01-07T20:31:12.013Z,171.75
2023-01-07T20:33:39.711Z,198.00
2023-01-07T20:36:12.579Z,173.50
2023-01-07T20:38:40.502Z,154.00
2023-01-07T20:41:09.968Z,151.75
2023-01-07T20:43:48.203Z,160.75
2023-01-07T20:46:18.112Z,149.00
2023-01-07T20:48:45.245Z,143.75
2023-01-07T20:51:14.937Z,130.25
2023-01-07T20:53:42.278Z,111.00
2023-01-07T20:56:09.457Z,113.25
2023-01-07T20:58:37.747Z,113.50
2023-01-07T21:01:07.715Z,118.75
2023-01-07T21:03:36.177Z,122.75
2023-01-07T21:06:02.897Z,138.50
2023-01-07T21:08:29.796Z,138.50
2023-01-07T21:10:56.607Z,137.25
2023-01-07T21:13:23.570Z,113.75
2023-01-07T21:15:51.613Z,109.50
2023-01-07T21:18:18.859Z,106.00
2023-01-07T21:20:48.006Z,110.25
2023-01-07T21:23:14.701Z,83.25
2023-01-07T21:25:41.679Z,82.25
2023-01-07T21:28:10.119Z,91.50
2023-01-07T21:30:36.877Z,94.50
2023-01-07T21:33:03.724Z,108.00
2023-01-07T21:35:30.447Z,80.25
2023-01-07T21:37:57.247Z,88.50
2023-01-07T21:40:24.216Z,96.00
2023-01-07T21:42:51.147Z,106.00
2023-01-07T21:45:18.850Z,114.50
2023-01-07T21:47:45.583Z,114.00
2023-01-07T21:50:15.073Z,108.75
2023-01-07T21:52:41.733Z,112.75
2023-01-07T21:55:09.637Z,126.75
2023-01-07T21:57:37.734Z,111.25
2023-01-07T22:00:06.806Z,127.75
2023-01-07T22:02:33.822Z,113.00
2023-01-07T22:05:00.513Z,117.00
2023-01-07T22:07:27.396Z,101.25
2023-01-07T22:09:54.173Z,131.25
2023-01-07T22:12:20.841Z,137.50
2023-01-07T22:14:47.579Z,121.75
2023-01-07T22:17:15.125Z,122.25
2023-01-07T22:19:41.799Z,114.25
2023-01-07T22:22:08.915Z,136.25
2023-01-07T22:24:35.808Z,108.00
2023-01-07T22:27:02.592Z,104.50
2023-01-07T22:29:32.510Z,100.25
2023-01-07T22:31:59.562Z,105.00
2023-01-07T22:34:26.379Z,97.50
2023-01-07T22:37:02.874Z,109.00
2023-01-07T22:39:29.659Z,138.00
2023-01-07T22:42:01.523Z,114.50
2023-01-07T22:44:38.712Z,112.25
2023-01-07T22:47:09.550Z,101.25
2023-01-07T22:49:36.466Z,112.50
2023-01-07T22:52:03.306Z,101.75
2023-01-07T22:54:31.533Z,101.25
2023-01-07T22:56:58.338Z,106.00
2023-01-07T22:59:25.061Z,83.75
2023-01-07T23:01:51.793Z,107.75
2023-01-07T23:04:18.607Z,85.00
2023-01-07T23:06:45.514Z,73.00
2023-01-07T23:09:12.542Z,84.00
2023-01-07T23:11:48.043Z,110.50
2023-01-07T23:14:16.150Z,79.50
2023-01-07T23:16:43.114Z,84.25
2023-01-07T23:19:10.105Z,81.75
2023-01-07T23:21:40.205Z,79.50
2023-01-07T23:24:07.139Z,82.25
2023-01-07T23:26:34.054Z,80.00
2023-01-07T23:29:00.732Z,86.75
2023-01-07T23:31:27.915Z,79.75
2023-01-07T23:33:55.121Z,82.25
2023-01-07T23:36:21.991Z,97.25
2023-01-07T23:38:48.887Z,101.50
2023-01-07T23:41:15.793Z,120.00
2023-01-07T23:43:42.461Z,94.00
2023-01-07T23:46:09.768Z,115.00
2023-01-07T23:48:38.133Z,92.50
2023-01-07T23:51:16.421Z,113.00
2023-01-07T23:53:43.551Z,130.75
2023-01-07T23:56:10.918Z,114.50
2023-01-07T23:58:38.182Z,123.75
